sensor_id;sensor_type;location;lat;lon;timestamp;P1;durP1;ratioP1;P2;durP2;ratioP2
19903;SDS011;10114;50.970;4.962;2022-11-28T00:01:57;7.80;;;3.35;;
19903;SDS011;10114;50.970;4.962;2022-11-28T00:04:23;5.55;;;2.45;;
19903;SDS011;10114;50.970;4.962;2022-11-28T00:06:49;7.20;;;2.70;;
19903;SDS011;10114;50.970;4.962;2022-11-28T00:09:16;7.13;;;2.83;;
19903;SDS011;10114;50.970;4.962;2022-11-28T00:11:42;7.35;;;2.85;;
19903;SDS011;10114;50.970;4.962;2022-11-28T00:14:09;8.05;;;2.63;;
19903;SDS011;10114;50.970;4.962;2022-11-28T00:16:35;5.75;;;2.85;;
19903;SDS011;10114;50.970;4.962;2022-11-28T00:19:01;6.15;;;2.70;;
19903;SDS011;10114;50.970;4.962;2022-11-28T00:21:28;8.82;;;3.05;;
19903;SDS011;10114;50.970;4.962;2022-11-28T00:23:55;6.55;;;2.50;;
19903;SDS011;10114;50.970;4.962;2022-11-28T00:26:32;6.00;;;2.47;;
19903;SDS011;10114;50.970;4.962;2022-11-28T00:28:58;7.22;;;2.67;;
19903;SDS011;10114;50.970;4.962;2022-11-28T00:31:26;6.55;;;2.63;;
19903;SDS011;10114;50.970;4.962;2022-11-28T00:33:52;5.53;;;2.45;;
19903;SDS011;10114;50.970;4.962;2022-11-28T00:36:19;6.30;;;2.53;;
19903;SDS011;10114;50.970;4.962;2022-11-28T00:38:45;6.90;;;2.50;;
19903;SDS011;10114;50.970;4.962;2022-11-28T00:41:12;5.40;;;2.40;;
19903;SDS011;10114;50.970;4.962;2022-11-28T00:43:39;7.10;;;2.47;;
19903;SDS011;10114;50.970;4.962;2022-11-28T00:46:05;6.95;;;2.55;;
19903;SDS011;10114;50.970;4.962;2022-11-28T00:48:32;5.68;;;2.30;;
19903;SDS011;10114;50.970;4.962;2022-11-28T00:51:05;7.07;;;2.53;;
19903;SDS011;10114;50.970;4.962;2022-11-28T00:53:31;4.15;;;1.92;;
19903;SDS011;10114;50.970;4.962;2022-11-28T00:55:57;5.25;;;2.20;;
19903;SDS011;10114;50.970;4.962;2022-11-28T00:58:23;5.07;;;2.05;;
19903;SDS011;10114;50.970;4.962;2022-11-28T01:00:49;8.32;;;3.25;;
19903;SDS011;10114;50.970;4.962;2022-11-28T01:03:15;7.55;;;2.78;;
19903;SDS011;10114;50.970;4.962;2022-11-28T01:05:41;5.38;;;2.50;;
19903;SDS011;10114;50.970;4.962;2022-11-28T01:08:08;8.05;;;2.67;;
19903;SDS011;10114;50.970;4.962;2022-11-28T01:10:37;10.25;;;2.63;;
19903;SDS011;10114;50.970;4.962;2022-11-28T01:13:03;5.22;;;2.50;;
19903;SDS011;10114;50.970;4.962;2022-11-28T01:15:29;5.72;;;2.30;;
19903;SDS011;10114;50.970;4.962;2022-11-28T01:17:55;6.88;;;2.63;;
19903;SDS011;10114;50.970;4.962;2022-11-28T01:20:21;7.90;;;2.45;;
19903;SDS011;10114;50.970;4.962;2022-11-28T01:22:47;5.20;;;2.20;;
19903;SDS011;10114;50.970;4.962;2022-11-28T01:25:13;8.38;;;2.47;;
19903;SDS011;10114;50.970;4.962;2022-11-28T01:27:39;5.25;;;2.30;;
19903;SDS011;10114;50.970;4.962;2022-11-28T01:30:06;5.85;;;2.30;;
19903;SDS011;10114;50.970;4.962;2022-11-28T01:32:32;4.72;;;1.73;;
19903;SDS011;10114;50.970;4.962;2022-11-28T01:34:58;5.90;;;2.47;;
19903;SDS011;10114;50.970;4.962;2022-11-28T01:37:24;6.30;;;2.58;;
19903;SDS011;10114;50.970;4.962;2022-11-28T01:39:50;4.97;;;2.35;;
19903;SDS011;10114;50.970;4.962;2022-11-28T01:42:19;6.78;;;2.22;;
19903;SDS011;10114;50.970;4.962;2022-11-28T01:47:15;7.07;;;2.58;;
19903;SDS011;10114;50.970;4.962;2022-11-28T01:49:42;6.28;;;2.53;;
19903;SDS011;10114;50.970;4.962;2022-11-28T01:52:11;7.50;;;2.53;;
19903;SDS011;10114;50.970;4.962;2022-11-28T01:54:38;5.43;;;2.17;;
19903;SDS011;10114;50.970;4.962;2022-11-28T01:57:06;6.57;;;2.50;;
19903;SDS011;10114;50.970;4.962;2022-11-28T01:59:33;6.00;;;2.00;;
19903;SDS011;10114;50.970;4.962;2022-11-28T02:02:01;6.00;;;2.47;;
19903;SDS011;10114;50.970;4.962;2022-11-28T02:04:28;7.03;;;2.58;;
19903;SDS011;10114;50.970;4.962;2022-11-28T02:06:54;5.35;;;2.42;;
19903;SDS011;10114;50.970;4.962;2022-11-28T02:09:21;5.75;;;1.98;;
19903;SDS011;10114;50.970;4.962;2022-11-28T02:22:11;6.50;;;2.58;;
19903;SDS011;10114;50.970;4.962;2022-11-28T02:27:22;4.63;;;2.28;;
19903;SDS011;10114;50.970;4.962;2022-11-28T02:32:24;5.80;;;2.42;;
19903;SDS011;10114;50.970;4.962;2022-11-28T02:42:35;5.38;;;2.60;;
19903;SDS011;10114;50.970;4.962;2022-11-28T02:47:37;7.00;;;2.90;;
19903;SDS011;10114;50.970;4.962;2022-11-28T02:50:04;5.63;;;2.67;;
19903;SDS011;10114;50.970;4.962;2022-11-28T02:52:38;8.48;;;2.80;;
19903;SDS011;10114;50.970;4.962;2022-11-28T02:55:05;5.63;;;2.40;;
19903;SDS011;10114;50.970;4.962;2022-11-28T02:57:36;6.80;;;3.03;;
19903;SDS011;10114;50.970;4.962;2022-11-28T03:00:19;7.90;;;3.00;;
19903;SDS011;10114;50.970;4.962;2022-11-28T03:02:48;6.13;;;2.85;;
19903;SDS011;10114;50.970;4.962;2022-11-28T03:05:19;7.53;;;2.75;;
19903;SDS011;10114;50.970;4.962;2022-11-28T03:07:59;5.88;;;2.95;;
19903;SDS011;10114;50.970;4.962;2022-11-28T03:10:34;6.90;;;2.63;;
19903;SDS011;10114;50.970;4.962;2022-11-28T03:16:00;6.72;;;2.72;;
19903;SDS011;10114;50.970;4.962;2022-11-28T03:18:33;7.65;;;3.08;;
19903;SDS011;10114;50.970;4.962;2022-11-28T03:21:08;8.45;;;3.05;;
19903;SDS011;10114;50.970;4.962;2022-11-28T03:23:40;6.25;;;3.00;;
19903;SDS011;10114;50.970;4.962;2022-11-28T03:26:28;6.63;;;2.55;;
19903;SDS011;10114;50.970;4.962;2022-11-28T03:29:11;6.10;;;2.67;;
19903;SDS011;10114;50.970;4.962;2022-11-28T03:31:41;9.05;;;3.58;;
19903;SDS011;10114;50.970;4.962;2022-11-28T03:34:09;6.55;;;3.20;;
19903;SDS011;10114;50.970;4.962;2022-11-28T03:36:39;7.47;;;3.20;;
19903;SDS011;10114;50.970;4.962;2022-11-28T03:39:10;7.32;;;3.60;;
19903;SDS011;10114;50.970;4.962;2022-11-28T03:41:38;6.53;;;3.00;;
19903;SDS011;10114;50.970;4.962;2022-11-28T03:44:07;7.00;;;3.05;;
19903;SDS011;10114;50.970;4.962;2022-11-28T03:46:35;5.93;;;3.00;;
19903;SDS011;10114;50.970;4.962;2022-11-28T03:49:03;7.70;;;3.35;;
19903;SDS011;10114;50.970;4.962;2022-11-28T03:56:48;7.80;;;3.15;;
19903;SDS011;10114;50.970;4.962;2022-11-28T03:59:39;6.55;;;3.45;;
19903;SDS011;10114;50.970;4.962;2022-11-28T04:07:35;7.78;;;3.03;;
19903;SDS011;10114;50.970;4.962;2022-11-28T04:12:33;8.25;;;3.55;;
19903;SDS011;10114;50.970;4.962;2022-11-28T04:15:04;8.55;;;3.75;;
19903;SDS011;10114;50.970;4.962;2022-11-28T04:17:32;8.73;;;3.50;;
19903;SDS011;10114;50.970;4.962;2022-11-28T04:20:02;6.80;;;3.53;;
19903;SDS011;10114;50.970;4.962;2022-11-28T04:22:32;9.02;;;3.67;;
19903;SDS011;10114;50.970;4.962;2022-11-28T04:25:01;6.30;;;3.60;;
19903;SDS011;10114;50.970;4.962;2022-11-28T04:27:31;8.18;;;3.83;;
19903;SDS011;10114;50.970;4.962;2022-11-28T04:29:58;8.38;;;3.72;;
19903;SDS011;10114;50.970;4.962;2022-11-28T04:32:25;7.13;;;3.50;;
19903;SDS011;10114;50.970;4.962;2022-11-28T04:34:55;8.88;;;3.58;;
19903;SDS011;10114;50.970;4.962;2022-11-28T04:37:22;7.38;;;3.85;;
19903;SDS011;10114;50.970;4.962;2022-11-28T04:39:49;8.18;;;3.70;;
19903;SDS011;10114;50.970;4.962;2022-11-28T04:42:18;8.50;;;3.60;;
19903;SDS011;10114;50.970;4.962;2022-11-28T04:44:47;7.47;;;3.88;;
19903;SDS011;10114;50.970;4.962;2022-11-28T04:47:14;6.90;;;3.45;;
19903;SDS011;10114;50.970;4.962;2022-11-28T04:49:40;6.95;;;3.53;;
19903;SDS011;10114;50.970;4.962;2022-11-28T04:54:37;8.00;;;3.70;;
19903;SDS011;10114;50.970;4.962;2022-11-28T04:59:49;8.77;;;3.30;;
19903;SDS011;10114;50.970;4.962;2022-11-28T05:02:16;7.95;;;3.45;;
19903;SDS011;10114;50.970;4.962;2022-11-28T05:04:43;8.90;;;3.72;;
19903;SDS011;10114;50.970;4.962;2022-11-28T05:07:09;7.35;;;3.80;;
19903;SDS011;10114;50.970;4.962;2022-11-28T05:09:35;8.15;;;4.00;;
19903;SDS011;10114;50.970;4.962;2022-11-28T05:12:02;10.07;;;3.85;;
19903;SDS011;10114;50.970;4.962;2022-11-28T05:14:28;7.82;;;3.75;;
19903;SDS011;10114;50.970;4.962;2022-11-28T05:16:54;7.93;;;3.42;;
19903;SDS011;10114;50.970;4.962;2022-11-28T05:19:21;7.38;;;3.60;;
19903;SDS011;10114;50.970;4.962;2022-11-28T05:21:47;10.00;;;3.88;;
19903;SDS011;10114;50.970;4.962;2022-11-28T05:24:13;7.82;;;3.67;;
19903;SDS011;10114;50.970;4.962;2022-11-28T05:26:39;7.93;;;4.05;;
19903;SDS011;10114;50.970;4.962;2022-11-28T05:29:05;9.32;;;3.90;;
19903;SDS011;10114;50.970;4.962;2022-11-28T05:31:31;9.73;;;3.35;;
19903;SDS011;10114;50.970;4.962;2022-11-28T05:33:57;7.75;;;3.50;;
19903;SDS011;10114;50.970;4.962;2022-11-28T05:36:23;8.63;;;3.28;;
19903;SDS011;10114;50.970;4.962;2022-11-28T05:38:49;8.57;;;4.32;;
19903;SDS011;10114;50.970;4.962;2022-11-28T05:43:44;6.18;;;3.00;;
19903;SDS011;10114;50.970;4.962;2022-11-28T05:46:10;9.02;;;3.80;;
19903;SDS011;10114;50.970;4.962;2022-11-28T05:48:36;8.80;;;3.40;;
19903;SDS011;10114;50.970;4.962;2022-11-28T05:51:03;8.35;;;4.00;;
19903;SDS011;10114;50.970;4.962;2022-11-28T05:53:29;7.25;;;3.30;;
19903;SDS011;10114;50.970;4.962;2022-11-28T05:55:55;7.00;;;3.17;;
19903;SDS011;10114;50.970;4.962;2022-11-28T05:58:21;7.80;;;3.40;;
19903;SDS011;10114;50.970;4.962;2022-11-28T06:00:47;7.88;;;3.53;;
19903;SDS011;10114;50.970;4.962;2022-11-28T06:03:13;8.80;;;4.15;;
19903;SDS011;10114;50.970;4.962;2022-11-28T06:05:41;7.93;;;3.45;;
19903;SDS011;10114;50.970;4.962;2022-11-28T06:08:07;8.05;;;3.58;;
19903;SDS011;10114;50.970;4.962;2022-11-28T06:10:33;6.78;;;3.63;;
19903;SDS011;10114;50.970;4.962;2022-11-28T06:12:59;8.13;;;4.55;;
19903;SDS011;10114;50.970;4.962;2022-11-28T06:15:27;8.75;;;4.97;;
19903;SDS011;10114;50.970;4.962;2022-11-28T06:17:53;8.25;;;4.43;;
19903;SDS011;10114;50.970;4.962;2022-11-28T06:20:19;8.38;;;4.35;;
19903;SDS011;10114;50.970;4.962;2022-11-28T06:22:45;6.53;;;4.03;;
19903;SDS011;10114;50.970;4.962;2022-11-28T06:25:11;7.43;;;4.07;;
19903;SDS011;10114;50.970;4.962;2022-11-28T06:27:37;9.80;;;4.15;;
19903;SDS011;10114;50.970;4.962;2022-11-28T06:30:04;7.22;;;4.03;;
19903;SDS011;10114;50.970;4.962;2022-11-28T06:32:30;7.53;;;3.75;;
19903;SDS011;10114;50.970;4.962;2022-11-28T06:34:56;8.27;;;3.85;;
19903;SDS011;10114;50.970;4.962;2022-11-28T06:37:23;10.82;;;4.22;;
19903;SDS011;10114;50.970;4.962;2022-11-28T06:39:49;11.52;;;4.25;;
19903;SDS011;10114;50.970;4.962;2022-11-28T06:42:15;7.95;;;4.00;;
19903;SDS011;10114;50.970;4.962;2022-11-28T06:44:42;8.20;;;4.53;;
19903;SDS011;10114;50.970;4.962;2022-11-28T06:47:08;8.55;;;4.00;;
19903;SDS011;10114;50.970;4.962;2022-11-28T06:49:34;9.70;;;4.47;;
19903;SDS011;10114;50.970;4.962;2022-11-28T06:52:01;8.10;;;4.50;;
19903;SDS011;10114;50.970;4.962;2022-11-28T06:54:27;8.93;;;4.53;;
19903;SDS011;10114;50.970;4.962;2022-11-28T06:56:53;8.75;;;4.80;;
19903;SDS011;10114;50.970;4.962;2022-11-28T06:59:19;9.85;;;4.63;;
19903;SDS011;10114;50.970;4.962;2022-11-28T07:01:45;7.72;;;4.35;;
19903;SDS011;10114;50.970;4.962;2022-11-28T07:04:11;10.65;;;4.90;;
19903;SDS011;10114;50.970;4.962;2022-11-28T07:06:37;10.57;;;5.43;;
19903;SDS011;10114;50.970;4.962;2022-11-28T07:09:03;10.45;;;5.80;;
19903;SDS011;10114;50.970;4.962;2022-11-28T07:11:30;8.88;;;5.35;;
19903;SDS011;10114;50.970;4.962;2022-11-28T07:13:57;10.80;;;5.82;;
19903;SDS011;10114;50.970;4.962;2022-11-28T07:16:24;11.80;;;5.70;;
19903;SDS011;10114;50.970;4.962;2022-11-28T07:18:51;11.48;;;5.70;;
19903;SDS011;10114;50.970;4.962;2022-11-28T07:21:17;9.95;;;5.63;;
19903;SDS011;10114;50.970;4.962;2022-11-28T07:23:43;11.82;;;5.95;;
19903;SDS011;10114;50.970;4.962;2022-11-28T07:26:11;12.02;;;5.95;;
19903;SDS011;10114;50.970;4.962;2022-11-28T07:28:37;11.55;;;6.68;;
19903;SDS011;10114;50.970;4.962;2022-11-28T07:31:07;13.40;;;6.72;;
19903;SDS011;10114;50.970;4.962;2022-11-28T07:33:37;11.80;;;6.22;;
19903;SDS011;10114;50.970;4.962;2022-11-28T07:36:04;12.25;;;7.05;;
19903;SDS011;10114;50.970;4.962;2022-11-28T07:38:31;12.20;;;6.88;;
19903;SDS011;10114;50.970;4.962;2022-11-28T07:41:07;13.13;;;7.18;;
19903;SDS011;10114;50.970;4.962;2022-11-28T07:43:33;12.77;;;7.22;;
19903;SDS011;10114;50.970;4.962;2022-11-28T07:46:02;14.32;;;7.70;;
19903;SDS011;10114;50.970;4.962;2022-11-28T07:48:28;12.10;;;7.38;;
19903;SDS011;10114;50.970;4.962;2022-11-28T07:50:54;24.45;;;11.15;;
19903;SDS011;10114;50.970;4.962;2022-11-28T07:53:20;23.83;;;12.57;;
19903;SDS011;10114;50.970;4.962;2022-11-28T07:55:46;23.23;;;11.90;;
19903;SDS011;10114;50.970;4.962;2022-11-28T07:58:12;21.88;;;11.70;;
19903;SDS011;10114;50.970;4.962;2022-11-28T08:00:38;20.00;;;10.35;;
19903;SDS011;10114;50.970;4.962;2022-11-28T08:03:04;14.38;;;8.23;;
19903;SDS011;10114;50.970;4.962;2022-11-28T08:05:30;16.83;;;9.50;;
19903;SDS011;10114;50.970;4.962;2022-11-28T08:07:56;14.68;;;8.15;;
19903;SDS011;10114;50.970;4.962;2022-11-28T08:10:22;15.07;;;8.75;;
19903;SDS011;10114;50.970;4.962;2022-11-28T08:12:48;13.38;;;7.68;;
19903;SDS011;10114;50.970;4.962;2022-11-28T08:15:14;14.73;;;8.40;;
19903;SDS011;10114;50.970;4.962;2022-11-28T08:17:40;13.68;;;7.95;;
19903;SDS011;10114;50.970;4.962;2022-11-28T08:20:07;13.75;;;8.05;;
19903;SDS011;10114;50.970;4.962;2022-11-28T08:22:33;14.50;;;7.63;;
19903;SDS011;10114;50.970;4.962;2022-11-28T08:24:59;12.35;;;7.35;;
19903;SDS011;10114;50.970;4.962;2022-11-28T08:27:25;11.77;;;6.47;;
19903;SDS011;10114;50.970;4.962;2022-11-28T08:29:51;12.23;;;6.80;;
19903;SDS011;10114;50.970;4.962;2022-11-28T08:32:17;11.30;;;6.63;;
19903;SDS011;10114;50.970;4.962;2022-11-28T08:34:44;12.45;;;7.22;;
19903;SDS011;10114;50.970;4.962;2022-11-28T08:37:10;11.93;;;7.53;;
19903;SDS011;10114;50.970;4.962;2022-11-28T08:39:36;13.48;;;8.27;;
19903;SDS011;10114;50.970;4.962;2022-11-28T08:42:02;16.85;;;8.05;;
19903;SDS011;10114;50.970;4.962;2022-11-28T08:44:28;11.65;;;7.20;;
19903;SDS011;10114;50.970;4.962;2022-11-28T08:46:54;13.85;;;7.40;;
19903;SDS011;10114;50.970;4.962;2022-11-28T08:49:20;10.63;;;6.05;;
19903;SDS011;10114;50.970;4.962;2022-11-28T08:51:46;10.02;;;6.10;;
19903;SDS011;10114;50.970;4.962;2022-11-28T08:54:12;11.10;;;6.18;;
19903;SDS011;10114;50.970;4.962;2022-11-28T08:56:38;10.90;;;6.65;;
19903;SDS011;10114;50.970;4.962;2022-11-28T08:59:04;11.63;;;6.05;;
19903;SDS011;10114;50.970;4.962;2022-11-28T09:01:31;8.93;;;5.15;;
19903;SDS011;10114;50.970;4.962;2022-11-28T09:03:57;12.23;;;5.63;;
19903;SDS011;10114;50.970;4.962;2022-11-28T09:06:23;8.07;;;5.38;;
19903;SDS011;10114;50.970;4.962;2022-11-28T09:08:49;9.25;;;5.43;;
19903;SDS011;10114;50.970;4.962;2022-11-28T09:11:17;8.82;;;5.30;;
19903;SDS011;10114;50.970;4.962;2022-11-28T09:13:43;14.85;;;6.75;;
19903;SDS011;10114;50.970;4.962;2022-11-28T09:16:10;12.18;;;6.25;;
19903;SDS011;10114;50.970;4.962;2022-11-28T09:18:36;13.93;;;7.00;;
19903;SDS011;10114;50.970;4.962;2022-11-28T09:21:03;13.85;;;7.57;;
19903;SDS011;10114;50.970;4.962;2022-11-28T09:23:31;9.60;;;5.68;;
19903;SDS011;10114;50.970;4.962;2022-11-28T09:25:57;11.15;;;6.55;;
19903;SDS011;10114;50.970;4.962;2022-11-28T09:28:24;10.75;;;5.85;;
19903;SDS011;10114;50.970;4.962;2022-11-28T09:30:58;11.13;;;5.85;;
19903;SDS011;10114;50.970;4.962;2022-11-28T09:33:24;14.38;;;5.70;;
19903;SDS011;10114;50.970;4.962;2022-11-28T09:35:50;11.07;;;5.65;;
19903;SDS011;10114;50.970;4.962;2022-11-28T09:38:16;9.27;;;5.90;;
19903;SDS011;10114;50.970;4.962;2022-11-28T09:40:42;10.45;;;6.25;;
19903;SDS011;10114;50.970;4.962;2022-11-28T09:43:13;12.35;;;6.47;;
19903;SDS011;10114;50.970;4.962;2022-11-28T09:45:40;10.43;;;5.22;;
19903;SDS011;10114;50.970;4.962;2022-11-28T09:50:41;10.65;;;5.22;;
19903;SDS011;10114;50.970;4.962;2022-11-28T09:55:55;9.98;;;5.07;;
19903;SDS011;10114;50.970;4.962;2022-11-28T10:03:47;10.05;;;4.88;;
19903;SDS011;10114;50.970;4.962;2022-11-28T10:06:19;11.40;;;5.70;;
19903;SDS011;10114;50.970;4.962;2022-11-28T10:16:57;10.50;;;4.93;;
19903;SDS011;10114;50.970;4.962;2022-11-28T10:19:32;10.18;;;4.90;;
19903;SDS011;10114;50.970;4.962;2022-11-28T10:22:01;9.88;;;4.97;;
19903;SDS011;10114;50.970;4.962;2022-11-28T10:24:37;10.27;;;5.18;;
19903;SDS011;10114;50.970;4.962;2022-11-28T10:27:05;11.75;;;5.82;;
19903;SDS011;10114;50.970;4.962;2022-11-28T10:31:58;12.52;;;5.88;;
19903;SDS011;10114;50.970;4.962;2022-11-28T10:34:33;11.48;;;5.47;;
19903;SDS011;10114;50.970;4.962;2022-11-28T10:37:06;15.73;;;5.72;;
19903;SDS011;10114;50.970;4.962;2022-11-28T10:39:35;12.38;;;5.30;;
19903;SDS011;10114;50.970;4.962;2022-11-28T10:42:03;10.73;;;5.47;;
19903;SDS011;10114;50.970;4.962;2022-11-28T10:47:16;9.88;;;5.03;;
19903;SDS011;10114;50.970;4.962;2022-11-28T10:49:53;10.68;;;4.97;;
19903;SDS011;10114;50.970;4.962;2022-11-28T10:52:41;10.13;;;5.20;;
19903;SDS011;10114;50.970;4.962;2022-11-28T11:00:24;11.15;;;5.18;;
19903;SDS011;10114;50.970;4.962;2022-11-28T11:02:54;10.90;;;5.18;;
19903;SDS011;10114;50.970;4.962;2022-11-28T11:05:25;9.93;;;4.63;;
19903;SDS011;10114;50.970;4.962;2022-11-28T11:10:25;11.63;;;5.55;;
19903;SDS011;10114;50.970;4.962;2022-11-28T11:12:55;10.18;;;5.53;;
19903;SDS011;10114;50.970;4.962;2022-11-28T11:15:29;11.05;;;5.80;;
19903;SDS011;10114;50.970;4.962;2022-11-28T11:17:56;12.18;;;5.93;;
19903;SDS011;10114;50.970;4.962;2022-11-28T11:20:31;13.45;;;6.15;;
19903;SDS011;10114;50.970;4.962;2022-11-28T11:23:02;17.52;;;6.43;;
19903;SDS011;10114;50.970;4.962;2022-11-28T11:25:36;17.88;;;6.97;;
19903;SDS011;10114;50.970;4.962;2022-11-28T11:28:02;16.88;;;6.35;;
19903;SDS011;10114;50.970;4.962;2022-11-28T11:30:33;14.15;;;6.82;;
19903;SDS011;10114;50.970;4.962;2022-11-28T11:33:00;16.70;;;5.88;;
19903;SDS011;10114;50.970;4.962;2022-11-28T11:35:28;18.98;;;6.80;;
19903;SDS011;10114;50.970;4.962;2022-11-28T11:38:28;15.88;;;6.15;;
19903;SDS011;10114;50.970;4.962;2022-11-28T11:40:50;12.77;;;5.45;;
19903;SDS011;10114;50.970;4.962;2022-11-28T11:43:34;9.60;;;4.32;;
19903;SDS011;10114;50.970;4.962;2022-11-28T11:48:40;15.23;;;6.65;;
19903;SDS011;10114;50.970;4.962;2022-11-28T11:51:07;15.75;;;6.80;;
19903;SDS011;10114;50.970;4.962;2022-11-28T11:53:45;15.30;;;6.63;;
19903;SDS011;10114;50.970;4.962;2022-11-28T11:56:11;16.63;;;5.53;;
19903;SDS011;10114;50.970;4.962;2022-11-28T11:58:48;14.40;;;5.55;;
19903;SDS011;10114;50.970;4.962;2022-11-28T12:01:16;11.15;;;4.85;;
19903;SDS011;10114;50.970;4.962;2022-11-28T12:06:12;11.90;;;4.97;;
19903;SDS011;10114;50.970;4.962;2022-11-28T12:08:51;13.15;;;5.10;;
19903;SDS011;10114;50.970;4.962;2022-11-28T12:13:44;12.25;;;5.80;;
19903;SDS011;10114;50.970;4.962;2022-11-28T12:19:04;12.73;;;4.78;;
19903;SDS011;10114;50.970;4.962;2022-11-28T12:21:44;14.23;;;5.43;;
19903;SDS011;10114;50.970;4.962;2022-11-28T12:24:13;16.42;;;5.45;;
19903;SDS011;10114;50.970;4.962;2022-11-28T12:26:44;12.57;;;5.07;;
19903;SDS011;10114;50.970;4.962;2022-11-28T12:29:33;13.82;;;4.85;;
19903;SDS011;10114;50.970;4.962;2022-11-28T12:34:52;12.73;;;4.95;;
19903;SDS011;10114;50.970;4.962;2022-11-28T12:37:44;17.23;;;4.75;;
19903;SDS011;10114;50.970;4.962;2022-11-28T12:40:31;12.27;;;4.63;;
19903;SDS011;10114;50.970;4.962;2022-11-28T12:45:45;14.30;;;5.15;;
19903;SDS011;10114;50.970;4.962;2022-11-28T12:50:40;12.73;;;5.05;;
19903;SDS011;10114;50.970;4.962;2022-11-28T13:00:49;14.02;;;4.82;;
19903;SDS011;10114;50.970;4.962;2022-11-28T13:06:18;12.90;;;4.28;;
19903;SDS011;10114;50.970;4.962;2022-11-28T13:13:46;13.23;;;4.30;;
19903;SDS011;10114;50.970;4.962;2022-11-28T13:16:16;20.98;;;5.13;;
19903;SDS011;10114;50.970;4.962;2022-11-28T13:29:18;22.00;;;6.22;;
19903;SDS011;10114;50.970;4.962;2022-11-28T13:31:50;15.50;;;5.28;;
19903;SDS011;10114;50.970;4.962;2022-11-28T13:34:17;19.92;;;6.88;;
19903;SDS011;10114;50.970;4.962;2022-11-28T13:39:19;19.98;;;5.82;;
19903;SDS011;10114;50.970;4.962;2022-11-28T13:42:07;17.55;;;5.03;;
19903;SDS011;10114;50.970;4.962;2022-11-28T13:44:49;19.42;;;5.18;;
19903;SDS011;10114;50.970;4.962;2022-11-28T13:49:47;13.68;;;4.88;;
19903;SDS011;10114;50.970;4.962;2022-11-28T13:54:43;20.60;;;6.45;;
19903;SDS011;10114;50.970;4.962;2022-11-28T14:00:00;17.25;;;5.65;;
19903;SDS011;10114;50.970;4.962;2022-11-28T14:02:38;17.42;;;5.90;;
19903;SDS011;10114;50.970;4.962;2022-11-28T14:05:13;20.13;;;5.65;;
19903;SDS011;10114;50.970;4.962;2022-11-28T14:07:43;13.45;;;4.47;;
19903;SDS011;10114;50.970;4.962;2022-11-28T14:10:17;13.32;;;4.53;;
19903;SDS011;10114;50.970;4.962;2022-11-28T14:15:28;19.52;;;5.70;;
19903;SDS011;10114;50.970;4.962;2022-11-28T14:25:30;17.33;;;5.50;;
19903;SDS011;10114;50.970;4.962;2022-11-28T14:28:00;17.95;;;5.82;;
19903;SDS011;10114;50.970;4.962;2022-11-28T14:32:57;22.23;;;6.18;;
19903;SDS011;10114;50.970;4.962;2022-11-28T14:43:29;25.25;;;6.88;;
19903;SDS011;10114;50.970;4.962;2022-11-28T14:54:22;17.77;;;5.90;;
19903;SDS011;10114;50.970;4.962;2022-11-28T14:56:49;19.48;;;5.53;;
19903;SDS011;10114;50.970;4.962;2022-11-28T14:59:15;17.92;;;5.32;;
19903;SDS011;10114;50.970;4.962;2022-11-28T15:02:01;18.67;;;6.05;;
19903;SDS011;10114;50.970;4.962;2022-11-28T15:04:37;21.05;;;5.57;;
19903;SDS011;10114;50.970;4.962;2022-11-28T15:07:10;21.42;;;5.45;;
19903;SDS011;10114;50.970;4.962;2022-11-28T15:09:48;31.08;;;5.05;;
19903;SDS011;10114;50.970;4.962;2022-11-28T15:12:25;19.20;;;5.00;;
19903;SDS011;10114;50.970;4.962;2022-11-28T15:14:54;14.75;;;4.97;;
19903;SDS011;10114;50.970;4.962;2022-11-28T15:17:26;22.17;;;6.30;;
19903;SDS011;10114;50.970;4.962;2022-11-28T15:19:54;15.50;;;4.65;;
19903;SDS011;10114;50.970;4.962;2022-11-28T15:22:39;17.10;;;4.85;;
19903;SDS011;10114;50.970;4.962;2022-11-28T15:27:44;14.32;;;4.90;;
19903;SDS011;10114;50.970;4.962;2022-11-28T15:30:14;20.80;;;5.38;;
19903;SDS011;10114;50.970;4.962;2022-11-28T15:32:40;17.15;;;5.15;;
19903;SDS011;10114;50.970;4.962;2022-11-28T15:35:11;21.05;;;8.18;;
19903;SDS011;10114;50.970;4.962;2022-11-28T15:37:52;22.23;;;9.05;;
19903;SDS011;10114;50.970;4.962;2022-11-28T15:40:20;28.17;;;7.18;;
19903;SDS011;10114;50.970;4.962;2022-11-28T15:42:48;20.73;;;7.20;;
19903;SDS011;10114;50.970;4.962;2022-11-28T15:47:46;23.75;;;7.47;;
19903;SDS011;10114;50.970;4.962;2022-11-28T15:50:14;26.63;;;7.88;;
19903;SDS011;10114;50.970;4.962;2022-11-28T15:53:42;20.73;;;7.05;;
19903;SDS011;10114;50.970;4.962;2022-11-28T15:55:37;22.23;;;7.78;;
19903;SDS011;10114;50.970;4.962;2022-11-28T15:58:10;19.83;;;7.07;;
19903;SDS011;10114;50.970;4.962;2022-11-28T16:00:36;19.38;;;7.70;;
19903;SDS011;10114;50.970;4.962;2022-11-28T16:03:03;23.50;;;9.90;;
19903;SDS011;10114;50.970;4.962;2022-11-28T16:05:30;18.88;;;7.25;;
19903;SDS011;10114;50.970;4.962;2022-11-28T16:07:56;23.88;;;8.68;;
19903;SDS011;10114;50.970;4.962;2022-11-28T16:10:26;24.42;;;8.45;;
19903;SDS011;10114;50.970;4.962;2022-11-28T16:12:57;20.52;;;7.88;;
19903;SDS011;10114;50.970;4.962;2022-11-28T16:15:23;20.15;;;7.35;;
19903;SDS011;10114;50.970;4.962;2022-11-28T16:17:52;21.80;;;8.60;;
19903;SDS011;10114;50.970;4.962;2022-11-28T16:20:20;22.08;;;7.55;;
19903;SDS011;10114;50.970;4.962;2022-11-28T16:22:46;25.05;;;8.10;;
19903;SDS011;10114;50.970;4.962;2022-11-28T16:25:16;28.75;;;9.88;;
19903;SDS011;10114;50.970;4.962;2022-11-28T16:27:43;20.13;;;8.55;;
19903;SDS011;10114;50.970;4.962;2022-11-28T16:32:48;20.85;;;7.15;;
19903;SDS011;10114;50.970;4.962;2022-11-28T16:35:25;22.27;;;8.23;;
19903;SDS011;10114;50.970;4.962;2022-11-28T16:37:52;23.42;;;7.55;;
19903;SDS011;10114;50.970;4.962;2022-11-28T16:40:19;23.75;;;8.15;;
19903;SDS011;10114;50.970;4.962;2022-11-28T16:42:52;18.98;;;7.38;;
19903;SDS011;10114;50.970;4.962;2022-11-28T16:45:20;20.38;;;7.90;;
19903;SDS011;10114;50.970;4.962;2022-11-28T16:47:51;23.85;;;8.77;;
19903;SDS011;10114;50.970;4.962;2022-11-28T16:50:19;23.55;;;10.07;;
19903;SDS011;10114;50.970;4.962;2022-11-28T16:52:52;25.13;;;10.25;;
19903;SDS011;10114;50.970;4.962;2022-11-28T16:57:55;24.13;;;8.90;;
19903;SDS011;10114;50.970;4.962;2022-11-28T17:00:24;21.02;;;8.57;;
19903;SDS011;10114;50.970;4.962;2022-11-28T17:02:51;22.77;;;8.52;;
19903;SDS011;10114;50.970;4.962;2022-11-28T17:05:17;28.20;;;13.05;;
19903;SDS011;10114;50.970;4.962;2022-11-28T17:07:44;19.92;;;8.90;;
19903;SDS011;10114;50.970;4.962;2022-11-28T17:10:13;30.25;;;9.15;;
19903;SDS011;10114;50.970;4.962;2022-11-28T17:12:39;17.63;;;6.32;;
19903;SDS011;10114;50.970;4.962;2022-11-28T17:15:06;17.30;;;6.70;;
19903;SDS011;10114;50.970;4.962;2022-11-28T17:17:35;23.77;;;7.90;;
19903;SDS011;10114;50.970;4.962;2022-11-28T17:20:01;20.10;;;8.23;;
19903;SDS011;10114;50.970;4.962;2022-11-28T17:22:36;21.08;;;7.50;;
19903;SDS011;10114;50.970;4.962;2022-11-28T17:25:03;27.73;;;7.80;;
19903;SDS011;10114;50.970;4.962;2022-11-28T17:27:30;27.58;;;8.43;;
19903;SDS011;10114;50.970;4.962;2022-11-28T17:29:56;18.63;;;7.78;;
19903;SDS011;10114;50.970;4.962;2022-11-28T17:32:22;18.65;;;7.75;;
19903;SDS011;10114;50.970;4.962;2022-11-28T17:34:48;24.73;;;9.75;;
19903;SDS011;10114;50.970;4.962;2022-11-28T17:37:14;24.13;;;10.80;;
19903;SDS011;10114;50.970;4.962;2022-11-28T17:39:40;24.67;;;10.02;;
19903;SDS011;10114;50.970;4.962;2022-11-28T17:42:26;27.17;;;9.70;;
19903;SDS011;10114;50.970;4.962;2022-11-28T17:44:52;22.45;;;10.07;;
19903;SDS011;10114;50.970;4.962;2022-11-28T17:47:18;22.98;;;9.25;;
19903;SDS011;10114;50.970;4.962;2022-11-28T17:49:44;27.08;;;9.52;;